sensor_id;sensor_type;location;lat;lon;timestamp;P1;durP1;ratioP1;P2;durP2;ratioP2
69937;SDS011;57248;47.320;15.998;2023-07-13T00:00:18;5.50;;;0.90;;
69937;SDS011;57248;47.320;15.998;2023-07-13T00:02:49;5.68;;;0.93;;
69937;SDS011;57248;47.320;15.998;2023-07-13T00:05:24;5.38;;;1.20;;
69937;SDS011;57248;47.320;15.998;2023-07-13T00:07:56;5.63;;;1.27;;
69937;SDS011;57248;47.320;15.998;2023-07-13T00:10:27;5.05;;;0.93;;
69937;SDS011;57248;47.320;15.998;2023-07-13T00:13:00;4.27;;;0.90;;
69937;SDS011;57248;47.320;15.998;2023-07-13T00:15:26;3.78;;;1.15;;
69937;SDS011;57248;47.320;15.998;2023-07-13T00:17:58;3.20;;;0.70;;
69937;SDS011;57248;47.320;15.998;2023-07-13T00:20:32;4.05;;;0.90;;
69937;SDS011;57248;47.320;15.998;2023-07-13T00:23:05;5.07;;;1.10;;
69937;SDS011;57248;47.320;15.998;2023-07-13T00:25:44;5.57;;;1.47;;
69937;SDS011;57248;47.320;15.998;2023-07-13T00:28:17;5.63;;;1.40;;
69937;SDS011;57248;47.320;15.998;2023-07-13T00:30:48;5.68;;;1.48;;
69937;SDS011;57248;47.320;15.998;2023-07-13T00:33:21;7.05;;;1.27;;
69937;SDS011;57248;47.320;15.998;2023-07-13T00:35:54;7.75;;;1.20;;
69937;SDS011;57248;47.320;15.998;2023-07-13T00:38:27;6.90;;;1.20;;
69937;SDS011;57248;47.320;15.998;2023-07-13T00:40:59;5.05;;;0.93;;
69937;SDS011;57248;47.320;15.998;2023-07-13T00:43:32;5.35;;;1.25;;
69937;SDS011;57248;47.320;15.998;2023-07-13T00:49:06;3.30;;;1.40;;
69937;SDS011;57248;47.320;15.998;2023-07-13T00:51:42;4.37;;;1.27;;
69937;SDS011;57248;47.320;15.998;2023-07-13T00:54:28;4.22;;;1.50;;
69937;SDS011;57248;47.320;15.998;2023-07-13T00:57:07;5.82;;;1.15;;
69937;SDS011;57248;47.320;15.998;2023-07-13T00:59:42;3.92;;;1.20;;
69937;SDS011;57248;47.320;15.998;2023-07-13T01:02:17;4.32;;;1.65;;
69937;SDS011;57248;47.320;15.998;2023-07-13T01:04:50;3.33;;;1.20;;
69937;SDS011;57248;47.320;15.998;2023-07-13T01:07:23;7.25;;;1.33;;
69937;SDS011;57248;47.320;15.998;2023-07-13T01:09:56;7.47;;;1.20;;
69937;SDS011;57248;47.320;15.998;2023-07-13T01:12:29;4.50;;;1.15;;
69937;SDS011;57248;47.320;15.998;2023-07-13T01:15:03;5.30;;;1.17;;
69937;SDS011;57248;47.320;15.998;2023-07-13T01:17:36;6.40;;;1.27;;
69937;SDS011;57248;47.320;15.998;2023-07-13T01:20:01;4.95;;;1.23;;
69937;SDS011;57248;47.320;15.998;2023-07-13T01:22:33;3.50;;;1.03;;
69937;SDS011;57248;47.320;15.998;2023-07-13T01:24:58;4.63;;;1.02;;
69937;SDS011;57248;47.320;15.998;2023-07-13T01:27:30;3.10;;;1.10;;
69937;SDS011;57248;47.320;15.998;2023-07-13T01:30:09;4.38;;;1.08;;
69937;SDS011;57248;47.320;15.998;2023-07-13T01:32:42;4.32;;;1.27;;
69937;SDS011;57248;47.320;15.998;2023-07-13T01:35:14;5.03;;;1.00;;
69937;SDS011;57248;47.320;15.998;2023-07-13T01:37:46;6.25;;;1.05;;
69937;SDS011;57248;47.320;15.998;2023-07-13T01:40:18;3.17;;;0.90;;
69937;SDS011;57248;47.320;15.998;2023-07-13T01:42:43;3.55;;;0.95;;
69937;SDS011;57248;47.320;15.998;2023-07-13T01:45:19;5.40;;;1.20;;
69937;SDS011;57248;47.320;15.998;2023-07-13T01:47:51;3.40;;;0.90;;
69937;SDS011;57248;47.320;15.998;2023-07-13T01:50:23;5.28;;;1.13;;
69937;SDS011;57248;47.320;15.998;2023-07-13T01:52:56;6.28;;;0.82;;
69937;SDS011;57248;47.320;15.998;2023-07-13T01:55:28;4.32;;;0.88;;
69937;SDS011;57248;47.320;15.998;2023-07-13T01:58:01;6.50;;;1.30;;
69937;SDS011;57248;47.320;15.998;2023-07-13T02:00:28;4.10;;;1.33;;
69937;SDS011;57248;47.320;15.998;2023-07-13T02:03:01;3.35;;;0.90;;
69937;SDS011;57248;47.320;15.998;2023-07-13T02:05:33;3.28;;;0.82;;
69937;SDS011;57248;47.320;15.998;2023-07-13T02:08:05;4.35;;;1.10;;
69937;SDS011;57248;47.320;15.998;2023-07-13T02:10:37;7.80;;;1.13;;
69937;SDS011;57248;47.320;15.998;2023-07-13T02:13:09;4.30;;;1.20;;
69937;SDS011;57248;47.320;15.998;2023-07-13T02:15:41;6.57;;;1.20;;
69937;SDS011;57248;47.320;15.998;2023-07-13T02:18:06;7.03;;;1.10;;
69937;SDS011;57248;47.320;15.998;2023-07-13T02:20:38;7.63;;;1.00;;
69937;SDS011;57248;47.320;15.998;2023-07-13T02:23:10;5.13;;;1.15;;
69937;SDS011;57248;47.320;15.998;2023-07-13T02:25:55;7.20;;;1.30;;
69937;SDS011;57248;47.320;15.998;2023-07-13T02:28:35;7.75;;;1.33;;
69937;SDS011;57248;47.320;15.998;2023-07-13T02:31:11;5.00;;;1.30;;
69937;SDS011;57248;47.320;15.998;2023-07-13T02:33:45;6.55;;;1.20;;
69937;SDS011;57248;47.320;15.998;2023-07-13T02:36:18;4.03;;;1.00;;
69937;SDS011;57248;47.320;15.998;2023-07-13T02:38:45;3.65;;;0.70;;
69937;SDS011;57248;47.320;15.998;2023-07-13T02:41:17;4.63;;;0.70;;
69937;SDS011;57248;47.320;15.998;2023-07-13T02:43:49;4.80;;;1.00;;
69937;SDS011;57248;47.320;15.998;2023-07-13T02:46:21;7.47;;;1.60;;
69937;SDS011;57248;47.320;15.998;2023-07-13T02:48:55;4.47;;;1.27;;
69937;SDS011;57248;47.320;15.998;2023-07-13T02:51:27;4.55;;;1.45;;
69937;SDS011;57248;47.320;15.998;2023-07-13T02:54:00;3.45;;;1.27;;
69937;SDS011;57248;47.320;15.998;2023-07-13T02:56:29;5.97;;;1.20;;
69937;SDS011;57248;47.320;15.998;2023-07-13T02:59:03;4.07;;;1.00;;
69937;SDS011;57248;47.320;15.998;2023-07-13T03:01:35;8.27;;;1.50;;
69937;SDS011;57248;47.320;15.998;2023-07-13T03:04:07;6.63;;;1.10;;
69937;SDS011;57248;47.320;15.998;2023-07-13T03:06:39;4.45;;;0.93;;
69937;SDS011;57248;47.320;15.998;2023-07-13T03:09:12;3.53;;;1.00;;
69937;SDS011;57248;47.320;15.998;2023-07-13T03:11:54;5.78;;;1.05;;
69937;SDS011;57248;47.320;15.998;2023-07-13T03:14:30;7.07;;;0.90;;
69937;SDS011;57248;47.320;15.998;2023-07-13T03:17:06;4.10;;;1.00;;
69937;SDS011;57248;47.320;15.998;2023-07-13T03:19:40;5.40;;;1.10;;
69937;SDS011;57248;47.320;15.998;2023-07-13T03:22:13;3.50;;;1.03;;
69937;SDS011;57248;47.320;15.998;2023-07-13T03:24:45;5.72;;;1.30;;
69937;SDS011;57248;47.320;15.998;2023-07-13T03:27:24;6.07;;;1.42;;
69937;SDS011;57248;47.320;15.998;2023-07-13T03:29:56;4.00;;;1.10;;
69937;SDS011;57248;47.320;15.998;2023-07-13T03:32:28;3.58;;;1.10;;
69937;SDS011;57248;47.320;15.998;2023-07-13T03:35:00;2.63;;;0.80;;
69937;SDS011;57248;47.320;15.998;2023-07-13T03:37:33;3.58;;;0.93;;
69937;SDS011;57248;47.320;15.998;2023-07-13T03:40:05;4.32;;;1.20;;
69937;SDS011;57248;47.320;15.998;2023-07-13T03:42:43;4.18;;;1.33;;
69937;SDS011;57248;47.320;15.998;2023-07-13T03:45:17;6.07;;;1.25;;
69937;SDS011;57248;47.320;15.998;2023-07-13T03:47:50;5.20;;;1.30;;
69937;SDS011;57248;47.320;15.998;2023-07-13T03:50:23;4.63;;;1.40;;
69937;SDS011;57248;47.320;15.998;2023-07-13T03:52:49;3.17;;;0.83;;
69937;SDS011;57248;47.320;15.998;2023-07-13T03:55:21;3.60;;;0.93;;
69937;SDS011;57248;47.320;15.998;2023-07-13T03:57:54;2.70;;;0.90;;
69937;SDS011;57248;47.320;15.998;2023-07-13T04:00:31;2.70;;;0.85;;
69937;SDS011;57248;47.320;15.998;2023-07-13T04:03:03;3.45;;;0.80;;
69937;SDS011;57248;47.320;15.998;2023-07-13T04:05:35;4.30;;;0.70;;
69937;SDS011;57248;47.320;15.998;2023-07-13T04:08:11;3.90;;;1.02;;
69937;SDS011;57248;47.320;15.998;2023-07-13T04:10:44;3.83;;;0.68;;
69937;SDS011;57248;47.320;15.998;2023-07-13T04:13:16;2.50;;;0.60;;
69937;SDS011;57248;47.320;15.998;2023-07-13T04:15:48;3.05;;;0.70;;
69937;SDS011;57248;47.320;15.998;2023-07-13T04:18:13;3.73;;;0.60;;
69937;SDS011;57248;47.320;15.998;2023-07-13T04:20:46;2.70;;;0.90;;
69937;SDS011;57248;47.320;15.998;2023-07-13T04:23:19;2.75;;;0.65;;
69937;SDS011;57248;47.320;15.998;2023-07-13T04:25:52;3.90;;;0.80;;
69937;SDS011;57248;47.320;15.998;2023-07-13T04:28:32;3.47;;;0.90;;
69937;SDS011;57248;47.320;15.998;2023-07-13T04:31:05;3.83;;;0.90;;
69937;SDS011;57248;47.320;15.998;2023-07-13T04:33:30;2.88;;;0.90;;
69937;SDS011;57248;47.320;15.998;2023-07-13T04:36:02;5.53;;;1.27;;
69937;SDS011;57248;47.320;15.998;2023-07-13T04:38:34;2.50;;;0.73;;
69937;SDS011;57248;47.320;15.998;2023-07-13T04:41:06;4.40;;;0.80;;
69937;SDS011;57248;47.320;15.998;2023-07-13T04:43:40;4.75;;;1.10;;
69937;SDS011;57248;47.320;15.998;2023-07-13T04:46:12;6.82;;;1.10;;
69937;SDS011;57248;47.320;15.998;2023-07-13T04:48:46;4.20;;;1.03;;
69937;SDS011;57248;47.320;15.998;2023-07-13T04:51:18;4.10;;;1.15;;
69937;SDS011;57248;47.320;15.998;2023-07-13T04:53:51;3.97;;;0.85;;
69937;SDS011;57248;47.320;15.998;2023-07-13T04:56:23;3.17;;;1.00;;
69937;SDS011;57248;47.320;15.998;2023-07-13T04:58:55;3.08;;;0.82;;
69937;SDS011;57248;47.320;15.998;2023-07-13T05:01:27;3.33;;;1.00;;
69937;SDS011;57248;47.320;15.998;2023-07-13T05:03:52;3.22;;;1.25;;
69937;SDS011;57248;47.320;15.998;2023-07-13T05:06:25;6.07;;;1.70;;
69937;SDS011;57248;47.320;15.998;2023-07-13T05:08:58;4.20;;;1.53;;
69937;SDS011;57248;47.320;15.998;2023-07-13T05:11:31;3.38;;;1.48;;
69937;SDS011;57248;47.320;15.998;2023-07-13T05:14:03;4.53;;;1.73;;
69937;SDS011;57248;47.320;15.998;2023-07-13T05:16:35;4.22;;;1.70;;
69937;SDS011;57248;47.320;15.998;2023-07-13T05:19:07;7.13;;;1.90;;
69937;SDS011;57248;47.320;15.998;2023-07-13T05:21:40;6.20;;;2.07;;
69937;SDS011;57248;47.320;15.998;2023-07-13T05:24:20;5.68;;;1.95;;
69937;SDS011;57248;47.320;15.998;2023-07-13T05:26:59;5.03;;;2.15;;
69937;SDS011;57248;47.320;15.998;2023-07-13T05:29:31;6.57;;;2.28;;
69937;SDS011;57248;47.320;15.998;2023-07-13T05:32:03;5.38;;;2.53;;
69937;SDS011;57248;47.320;15.998;2023-07-13T05:34:35;4.90;;;2.63;;
69937;SDS011;57248;47.320;15.998;2023-07-13T05:37:07;5.10;;;2.10;;
69937;SDS011;57248;47.320;15.998;2023-07-13T05:39:33;6.25;;;1.90;;
69937;SDS011;57248;47.320;15.998;2023-07-13T05:42:05;4.72;;;1.75;;
69937;SDS011;57248;47.320;15.998;2023-07-13T05:44:38;4.18;;;1.58;;
69937;SDS011;57248;47.320;15.998;2023-07-13T05:47:10;5.10;;;1.53;;
69937;SDS011;57248;47.320;15.998;2023-07-13T05:49:42;3.95;;;1.30;;
69937;SDS011;57248;47.320;15.998;2023-07-13T05:52:14;10.80;;;1.67;;
69937;SDS011;57248;47.320;15.998;2023-07-13T05:54:47;3.97;;;1.70;;
69937;SDS011;57248;47.320;15.998;2023-07-13T05:57:19;5.05;;;1.80;;
69937;SDS011;57248;47.320;15.998;2023-07-13T05:59:51;4.03;;;1.70;;
69937;SDS011;57248;47.320;15.998;2023-07-13T06:02:23;4.38;;;1.45;;
69937;SDS011;57248;47.320;15.998;2023-07-13T06:04:55;3.55;;;1.50;;
69937;SDS011;57248;47.320;15.998;2023-07-13T06:07:27;5.63;;;1.65;;
69937;SDS011;57248;47.320;15.998;2023-07-13T06:09:59;3.40;;;1.50;;
69937;SDS011;57248;47.320;15.998;2023-07-13T06:12:32;3.93;;;1.30;;
69937;SDS011;57248;47.320;15.998;2023-07-13T06:15:04;5.28;;;1.55;;
69937;SDS011;57248;47.320;15.998;2023-07-13T06:17:36;3.90;;;1.60;;
69937;SDS011;57248;47.320;15.998;2023-07-13T06:20:08;4.57;;;1.58;;
69937;SDS011;57248;47.320;15.998;2023-07-13T06:22:55;3.20;;;1.50;;
69937;SDS011;57248;47.320;15.998;2023-07-13T06:25:27;4.53;;;1.60;;
69937;SDS011;57248;47.320;15.998;2023-07-13T06:28:07;3.35;;;1.50;;
69937;SDS011;57248;47.320;15.998;2023-07-13T06:30:39;3.22;;;1.50;;
69937;SDS011;57248;47.320;15.998;2023-07-13T06:33:12;5.35;;;1.80;;
69937;SDS011;57248;47.320;15.998;2023-07-13T06:35:44;5.93;;;1.75;;
69937;SDS011;57248;47.320;15.998;2023-07-13T06:38:17;6.03;;;1.97;;
69937;SDS011;57248;47.320;15.998;2023-07-13T06:40:43;5.43;;;1.70;;
69937;SDS011;57248;47.320;15.998;2023-07-13T06:43:15;6.05;;;1.80;;
69937;SDS011;57248;47.320;15.998;2023-07-13T06:45:48;4.72;;;2.00;;
69937;SDS011;57248;47.320;15.998;2023-07-13T06:48:23;3.42;;;1.75;;
69937;SDS011;57248;47.320;15.998;2023-07-13T06:50:55;3.53;;;1.40;;
69937;SDS011;57248;47.320;15.998;2023-07-13T06:53:27;3.85;;;2.10;;
69937;SDS011;57248;47.320;15.998;2023-07-13T06:55:52;3.88;;;1.88;;
69937;SDS011;57248;47.320;15.998;2023-07-13T06:58:25;3.20;;;1.97;;
69937;SDS011;57248;47.320;15.998;2023-07-13T07:00:57;3.97;;;2.40;;
69937;SDS011;57248;47.320;15.998;2023-07-13T07:03:29;5.20;;;2.28;;
69937;SDS011;57248;47.320;15.998;2023-07-13T07:06:02;3.78;;;2.63;;
69937;SDS011;57248;47.320;15.998;2023-07-13T07:08:55;3.50;;;2.80;;
69937;SDS011;57248;47.320;15.998;2023-07-13T07:11:27;3.43;;;3.13;;
69937;SDS011;57248;47.320;15.998;2023-07-13T07:13:59;4.50;;;3.33;;
69937;SDS011;57248;47.320;15.998;2023-07-13T07:16:31;4.60;;;3.88;;
69937;SDS011;57248;47.320;15.998;2023-07-13T07:19:03;4.60;;;3.83;;
69937;SDS011;57248;47.320;15.998;2023-07-13T07:21:28;4.50;;;4.10;;
69937;SDS011;57248;47.320;15.998;2023-07-13T07:24:00;4.88;;;3.60;;
69937;SDS011;57248;47.320;15.998;2023-07-13T07:26:39;5.90;;;4.53;;
69937;SDS011;57248;47.320;15.998;2023-07-13T07:29:11;5.47;;;4.93;;
69937;SDS011;57248;47.320;15.998;2023-07-13T07:31:43;5.65;;;5.15;;
69937;SDS011;57248;47.320;15.998;2023-07-13T07:34:08;6.68;;;6.07;;
69937;SDS011;57248;47.320;15.998;2023-07-13T07:36:40;6.13;;;5.63;;
69937;SDS011;57248;47.320;15.998;2023-07-13T07:39:12;7.35;;;6.65;;
69937;SDS011;57248;47.320;15.998;2023-07-13T07:41:44;6.93;;;6.43;;
69937;SDS011;57248;47.320;15.998;2023-07-13T07:44:16;7.20;;;6.63;;
69937;SDS011;57248;47.320;15.998;2023-07-13T07:46:48;9.05;;;8.35;;
69937;SDS011;57248;47.320;15.998;2023-07-13T07:49:21;8.83;;;8.13;;
69937;SDS011;57248;47.320;15.998;2023-07-13T07:51:53;8.27;;;7.68;;
69937;SDS011;57248;47.320;15.998;2023-07-13T07:54:25;8.30;;;7.70;;
69937;SDS011;57248;47.320;15.998;2023-07-13T07:56:57;10.68;;;9.77;;
69937;SDS011;57248;47.320;15.998;2023-07-13T07:59:29;10.20;;;9.40;;
69937;SDS011;57248;47.320;15.998;2023-07-13T08:02:01;9.43;;;8.83;;
69937;SDS011;57248;47.320;15.998;2023-07-13T08:04:34;10.10;;;9.32;;
69937;SDS011;57248;47.320;15.998;2023-07-13T08:07:06;10.70;;;10.00;;
69937;SDS011;57248;47.320;15.998;2023-07-13T08:09:38;12.57;;;11.70;;
69937;SDS011;57248;47.320;15.998;2023-07-13T08:12:10;12.90;;;12.10;;
69937;SDS011;57248;47.320;15.998;2023-07-13T08:14:43;13.30;;;12.37;;
69937;SDS011;57248;47.320;15.998;2023-07-13T08:17:15;13.48;;;12.57;;
69937;SDS011;57248;47.320;15.998;2023-07-13T08:19:47;13.75;;;12.85;;
69937;SDS011;57248;47.320;15.998;2023-07-13T08:22:21;13.98;;;12.98;;
69937;SDS011;57248;47.320;15.998;2023-07-13T08:24:46;14.73;;;13.43;;
69937;SDS011;57248;47.320;15.998;2023-07-13T08:27:26;14.88;;;13.85;;
69937;SDS011;57248;47.320;15.998;2023-07-13T08:30:07;15.40;;;14.50;;
69937;SDS011;57248;47.320;15.998;2023-07-13T08:32:41;16.13;;;15.13;;
69937;SDS011;57248;47.320;15.998;2023-07-13T08:35:13;16.67;;;15.60;;
69937;SDS011;57248;47.320;15.998;2023-07-13T08:37:45;14.60;;;13.70;;
69937;SDS011;57248;47.320;15.998;2023-07-13T08:40:17;15.00;;;13.88;;
69937;SDS011;57248;47.320;15.998;2023-07-13T08:42:56;12.15;;;11.45;;
69937;SDS011;57248;47.320;15.998;2023-07-13T08:45:42;11.88;;;11.07;;
69937;SDS011;57248;47.320;15.998;2023-07-13T08:51:07;9.88;;;9.27;;
69937;SDS011;57248;47.320;15.998;2023-07-13T08:53:53;11.00;;;10.10;;
69937;SDS011;57248;47.320;15.998;2023-07-13T08:56:28;13.63;;;12.63;;
69937;SDS011;57248;47.320;15.998;2023-07-13T08:59:06;15.30;;;14.40;;
69937;SDS011;57248;47.320;15.998;2023-07-13T09:01:59;16.70;;;15.70;;
69937;SDS011;57248;47.320;15.998;2023-07-13T09:04:49;18.05;;;17.05;;
69937;SDS011;57248;47.320;15.998;2023-07-13T09:07:29;17.10;;;16.10;;
69937;SDS011;57248;47.320;15.998;2023-07-13T09:10:14;14.30;;;13.50;;
69937;SDS011;57248;47.320;15.998;2023-07-13T09:15:40;17.67;;;16.57;;
69937;SDS011;57248;47.320;15.998;2023-07-13T09:18:28;17.95;;;16.85;;
69937;SDS011;57248;47.320;15.998;2023-07-13T09:21:08;17.42;;;16.40;;
69937;SDS011;57248;47.320;15.998;2023-07-13T09:23:44;15.40;;;14.50;;
69937;SDS011;57248;47.320;15.998;2023-07-13T09:26:23;16.98;;;16.00;;
69937;SDS011;57248;47.320;15.998;2023-07-13T09:29:03;15.80;;;14.90;;
69937;SDS011;57248;47.320;15.998;2023-07-13T09:31:45;18.25;;;17.15;;
69937;SDS011;57248;47.320;15.998;2023-07-13T09:34:21;18.65;;;17.55;;
69937;SDS011;57248;47.320;15.998;2023-07-13T09:36:54;17.75;;;16.75;;
69937;SDS011;57248;47.320;15.998;2023-07-13T09:39:27;16.30;;;15.40;;
69937;SDS011;57248;47.320;15.998;2023-07-13T09:42:07;15.97;;;15.07;;
69937;SDS011;57248;47.320;15.998;2023-07-13T09:44:57;15.23;;;14.32;;
69937;SDS011;57248;47.320;15.998;2023-07-13T09:47:32;16.00;;;15.10;;
69937;SDS011;57248;47.320;15.998;2023-07-13T09:50:10;18.67;;;17.67;;
69937;SDS011;57248;47.320;15.998;2023-07-13T09:52:49;20.25;;;19.05;;
69937;SDS011;57248;47.320;15.998;2023-07-13T09:55:23;24.87;;;23.47;;
69937;SDS011;57248;47.320;15.998;2023-07-13T09:57:59;23.25;;;21.95;;
69937;SDS011;57248;47.320;15.998;2023-07-13T10:01:01;20.55;;;19.35;;
69937;SDS011;57248;47.320;15.998;2023-07-13T10:03:36;21.88;;;20.67;;
69937;SDS011;57248;47.320;15.998;2023-07-13T10:06:18;15.25;;;14.35;;
69937;SDS011;57248;47.320;15.998;2023-07-13T10:08:55;13.20;;;12.40;;
69937;SDS011;57248;47.320;15.998;2023-07-13T10:11:22;15.57;;;14.68;;
69937;SDS011;57248;47.320;15.998;2023-07-13T10:14:15;17.08;;;16.00;;
69937;SDS011;57248;47.320;15.998;2023-07-13T10:16:49;19.10;;;18.00;;
69937;SDS011;57248;47.320;15.998;2023-07-13T10:19:29;21.00;;;19.80;;
69937;SDS011;57248;47.320;15.998;2023-07-13T10:22:15;24.40;;;23.03;;
69937;SDS011;57248;47.320;15.998;2023-07-13T10:24:52;20.75;;;19.55;;
69937;SDS011;57248;47.320;15.998;2023-07-13T10:27:29;20.40;;;19.17;;
69937;SDS011;57248;47.320;15.998;2023-07-13T10:30:14;23.70;;;22.30;;
69937;SDS011;57248;47.320;15.998;2023-07-13T10:32:51;23.33;;;22.02;;
69937;SDS011;57248;47.320;15.998;2023-07-13T10:35:25;25.63;;;24.23;;
69937;SDS011;57248;47.320;15.998;2023-07-13T10:38:06;27.38;;;25.88;;
69937;SDS011;57248;47.320;15.998;2023-07-13T10:40:45;29.80;;;28.20;;
69937;SDS011;57248;47.320;15.998;2023-07-13T10:43:28;17.55;;;16.52;;
69937;SDS011;57248;47.320;15.998;2023-07-13T10:46:06;17.83;;;16.83;;
69937;SDS011;57248;47.320;15.998;2023-07-13T10:48:33;20.73;;;19.53;;
69937;SDS011;57248;47.320;15.998;2023-07-13T10:51:08;17.33;;;16.20;;
69937;SDS011;57248;47.320;15.998;2023-07-13T10:53:42;16.73;;;15.70;;
69937;SDS011;57248;47.320;15.998;2023-07-13T11:04:40;11.80;;;11.05;;
69937;SDS011;57248;47.320;15.998;2023-07-13T11:07:28;9.20;;;8.60;;
69937;SDS011;57248;47.320;15.998;2023-07-13T11:10:04;8.75;;;8.15;;
69937;SDS011;57248;47.320;15.998;2023-07-13T11:15:29;9.67;;;9.00;;
69937;SDS011;57248;47.320;15.998;2023-07-13T11:18:10;7.45;;;6.88;;
69937;SDS011;57248;47.320;15.998;2023-07-13T11:21:07;4.43;;;4.03;;
69937;SDS011;57248;47.320;15.998;2023-07-13T11:23:51;3.78;;;3.38;;
69937;SDS011;57248;47.320;15.998;2023-07-13T11:32:30;4.55;;;3.83;;
69937;SDS011;57248;47.320;15.998;2023-07-13T11:35:03;3.63;;;3.15;;
69937;SDS011;57248;47.320;15.998;2023-07-13T11:37:29;4.20;;;3.20;;
69937;SDS011;57248;47.320;15.998;2023-07-13T11:40:03;5.60;;;5.10;;
69937;SDS011;57248;47.320;15.998;2023-07-13T11:42:38;6.43;;;5.93;;
69937;SDS011;57248;47.320;15.998;2023-07-13T11:45:14;6.80;;;6.30;;
69937;SDS011;57248;47.320;15.998;2023-07-13T11:47:51;6.63;;;6.03;;
69937;SDS011;57248;47.320;15.998;2023-07-13T11:50:20;7.63;;;7.03;;
69937;SDS011;57248;47.320;15.998;2023-07-13T11:52:57;7.57;;;7.03;;
69937;SDS011;57248;47.320;15.998;2023-07-13T11:55:30;5.93;;;5.43;;
69937;SDS011;57248;47.320;15.998;2023-07-13T11:58:03;6.10;;;5.60;;
69937;SDS011;57248;47.320;15.998;2023-07-13T12:00:29;5.90;;;5.30;;
69937;SDS011;57248;47.320;15.998;2023-07-13T12:03:10;4.60;;;4.20;;
69937;SDS011;57248;47.320;15.998;2023-07-13T12:05:56;4.05;;;3.60;;
69937;SDS011;57248;47.320;15.998;2023-07-13T12:08:38;4.57;;;2.93;;
69937;SDS011;57248;47.320;15.998;2023-07-13T12:11:15;4.05;;;3.20;;
69937;SDS011;57248;47.320;15.998;2023-07-13T12:13:48;2.95;;;2.50;;
69937;SDS011;57248;47.320;15.998;2023-07-13T12:16:31;2.83;;;2.22;;
69937;SDS011;57248;47.320;15.998;2023-07-13T12:19:09;3.22;;;2.65;;
69937;SDS011;57248;47.320;15.998;2023-07-13T12:21:50;3.30;;;2.90;;
69937;SDS011;57248;47.320;15.998;2023-07-13T12:24:24;4.15;;;2.88;;
69937;SDS011;57248;47.320;15.998;2023-07-13T12:27:02;3.83;;;2.80;;
69937;SDS011;57248;47.320;15.998;2023-07-13T12:29:48;3.97;;;2.60;;
69937;SDS011;57248;47.320;15.998;2023-07-13T12:32:21;3.15;;;2.40;;
69937;SDS011;57248;47.320;15.998;2023-07-13T12:37:48;4.10;;;3.70;;
69937;SDS011;57248;47.320;15.998;2023-07-13T12:40:17;4.80;;;4.03;;
69937;SDS011;57248;47.320;15.998;2023-07-13T12:42:52;4.20;;;3.80;;
69937;SDS011;57248;47.320;15.998;2023-07-13T12:45:25;3.72;;;3.38;;
69937;SDS011;57248;47.320;15.998;2023-07-13T12:48:03;4.55;;;2.75;;
69937;SDS011;57248;47.320;15.998;2023-07-13T12:50:41;5.18;;;2.47;;
69937;SDS011;57248;47.320;15.998;2023-07-13T12:53:23;3.77;;;1.80;;
69937;SDS011;57248;47.320;15.998;2023-07-13T12:56:01;3.55;;;2.10;;
69937;SDS011;57248;47.320;15.998;2023-07-13T12:58:39;4.40;;;1.67;;
69937;SDS011;57248;47.320;15.998;2023-07-13T13:01:17;3.08;;;1.65;;
69937;SDS011;57248;47.320;15.998;2023-07-13T13:03:50;4.47;;;1.80;;
69937;SDS011;57248;47.320;15.998;2023-07-13T13:08:59;4.72;;;1.70;;
69937;SDS011;57248;47.320;15.998;2023-07-13T13:11:26;2.70;;;1.70;;
69937;SDS011;57248;47.320;15.998;2023-07-13T13:14:00;4.03;;;1.20;;
69937;SDS011;57248;47.320;15.998;2023-07-13T13:16:33;4.60;;;1.60;;
69937;SDS011;57248;47.320;15.998;2023-07-13T13:19:14;9.73;;;2.70;;
69937;SDS011;57248;47.320;15.998;2023-07-13T13:21:48;11.52;;;3.88;;
69937;SDS011;57248;47.320;15.998;2023-07-13T13:24:24;8.52;;;3.40;;
69937;SDS011;57248;47.320;15.998;2023-07-13T13:27:05;6.03;;;2.15;;
69937;SDS011;57248;47.320;15.998;2023-07-13T13:29:44;4.43;;;2.20;;
69937;SDS011;57248;47.320;15.998;2023-07-13T13:32:18;8.70;;;2.50;;
69937;SDS011;57248;47.320;15.998;2023-07-13T13:34:50;4.53;;;1.83;;
69937;SDS011;57248;47.320;15.998;2023-07-13T13:37:23;6.82;;;2.20;;
69937;SDS011;57248;47.320;15.998;2023-07-13T13:39:58;5.35;;;1.90;;
69937;SDS011;57248;47.320;15.998;2023-07-13T13:42:30;3.45;;;1.30;;
69937;SDS011;57248;47.320;15.998;2023-07-13T13:45:02;4.23;;;1.40;;
69937;SDS011;57248;47.320;15.998;2023-07-13T13:47:34;4.10;;;1.17;;
69937;SDS011;57248;47.320;15.998;2023-07-13T13:50:11;5.15;;;1.33;;
69937;SDS011;57248;47.320;15.998;2023-07-13T13:52:54;5.03;;;1.85;;
69937;SDS011;57248;47.320;15.998;2023-07-13T13:55:20;8.90;;;2.30;;
69937;SDS011;57248;47.320;15.998;2023-07-13T13:57:53;5.13;;;1.13;;
69937;SDS011;57248;47.320;15.998;2023-07-13T14:00:25;4.68;;;1.70;;
69937;SDS011;57248;47.320;15.998;2023-07-13T14:02:57;5.67;;;1.07;;
69937;SDS011;57248;47.320;15.998;2023-07-13T14:05:29;6.30;;;1.58;;
69937;SDS011;57248;47.320;15.998;2023-07-13T14:08:02;3.88;;;0.82;;
69937;SDS011;57248;47.320;15.998;2023-07-13T14:10:35;3.72;;;0.40;;
69937;SDS011;57248;47.320;15.998;2023-07-13T14:13:14;5.40;;;0.98;;
69937;SDS011;57248;47.320;15.998;2023-07-13T14:15:50;6.00;;;1.17;;
69937;SDS011;57248;47.320;15.998;2023-07-13T14:18:23;5.13;;;1.23;;
69937;SDS011;57248;47.320;15.998;2023-07-13T14:20:55;7.18;;;1.30;;
69937;SDS011;57248;47.320;15.998;2023-07-13T14:23:28;6.72;;;1.20;;
69937;SDS011;57248;47.320;15.998;2023-07-13T14:26:00;3.53;;;0.90;;
69937;SDS011;57248;47.320;15.998;2023-07-13T14:29:04;4.60;;;1.17;;
69937;SDS011;57248;47.320;15.998;2023-07-13T14:31:50;4.35;;;0.70;;
69937;SDS011;57248;47.320;15.998;2023-07-13T14:34:23;5.05;;;0.50;;
69937;SDS011;57248;47.320;15.998;2023-07-13T14:36:55;3.42;;;0.60;;
69937;SDS011;57248;47.320;15.998;2023-07-13T14:39:29;3.65;;;0.90;;
69937;SDS011;57248;47.320;15.998;2023-07-13T14:42:01;4.30;;;0.80;;
69937;SDS011;57248;47.320;15.998;2023-07-13T14:44:35;5.15;;;1.27;;
69937;SDS011;57248;47.320;15.998;2023-07-13T14:47:08;3.92;;;0.80;;
69937;SDS011;57248;47.320;15.998;2023-07-13T14:49:35;2.85;;;0.68;;
69937;SDS011;57248;47.320;15.998;2023-07-13T14:52:19;2.47;;;0.68;;
69937;SDS011;57248;47.320;15.998;2023-07-13T14:54:55;3.50;;;0.87;;
69937;SDS011;57248;47.320;15.998;2023-07-13T14:57:31;4.43;;;1.00;;
69937;SDS011;57248;47.320;15.998;2023-07-13T14:59:56;3.37;;;1.00;;
69937;SDS011;57248;47.320;15.998;2023-07-13T15:02:33;2.83;;;0.60;;
69937;SDS011;57248;47.320;15.998;2023-07-13T15:05:13;2.03;;;0.70;;
69937;SDS011;57248;47.320;15.998;2023-07-13T15:07:45;3.28;;;0.80;;
69937;SDS011;57248;47.320;15.998;2023-07-13T15:10:21;3.80;;;1.00;;
69937;SDS011;57248;47.320;15.998;2023-07-13T15:13:12;3.37;;;0.90;;
69937;SDS011;57248;47.320;15.998;2023-07-13T15:15:52;3.42;;;1.00;;
69937;SDS011;57248;47.320;15.998;2023-07-13T15:18:20;2.58;;;0.75;;
69937;SDS011;57248;47.320;15.998;2023-07-13T15:20:54;3.08;;;1.02;;
69937;SDS011;57248;47.320;15.998;2023-07-13T15:23:21;4.35;;;1.10;;
69937;SDS011;57248;47.320;15.998;2023-07-13T15:25:54;2.73;;;0.97;;
69937;SDS011;57248;47.320;15.998;2023-07-13T15:28:33;3.72;;;1.13;;
69937;SDS011;57248;47.320;15.998;2023-07-13T15:31:11;3.03;;;0.73;;
69937;SDS011;57248;47.320;15.998;2023-07-13T15:33:52;2.58;;;0.80;;
69937;SDS011;57248;47.320;15.998;2023-07-13T15:36:20;2.58;;;0.80;;
69937;SDS011;57248;47.320;15.998;2023-07-13T15:38:54;2.63;;;0.83;;
69937;SDS011;57248;47.320;15.998;2023-07-13T15:41:27;3.30;;;0.95;;
69937;SDS011;57248;47.320;15.998;2023-07-13T15:44:00;3.40;;;1.00;;